Terminal Aerodrome Forecast
Issued by NWS

Home | Current Version | Previous Version | Graphics & Text | Print | Product List | Glossary On
Versions: 1 2 3 4 5 6 7 8 9 10 11 12
000
FTUS43 KTOP 292300
TAFFOE
TAF
KFOE 292320Z 3000/3024 34019G26KT P6SM SKC
     FM300100 VRB03KT P6SM SKC
     FM301500 21016G22KT P6SM SCT150=

USA.gov is the U.S. government's official web portal to all federal, state and local government web resources and services.